createdAt,value
2023-11-28T00:01:43.625Z,17.25
2023-11-28T00:06:48.508Z,17.27
2023-11-28T00:11:51.957Z,16.20
2023-11-28T00:16:55.435Z,15.30
2023-11-28T00:22:00.210Z,15.75
2023-11-28T00:27:04.583Z,14.63
2023-11-28T00:32:09.045Z,13.85
2023-11-28T00:37:13.850Z,13.50
2023-11-28T00:42:17.998Z,11.68
2023-11-28T00:47:21.515Z,9.95
2023-11-28T00:52:26.533Z,10.18
2023-11-28T00:57:29.995Z,9.38
2023-11-28T01:02:33.565Z,8.25
2023-11-28T01:07:38.833Z,8.45
2023-11-28T01:12:42.591Z,7.88
2023-11-28T01:17:46.744Z,8.13
2023-11-28T01:22:51.595Z,7.80
2023-11-28T01:27:55.440Z,7.20
2023-11-28T01:32:58.909Z,7.15
2023-11-28T01:38:04.103Z,7.03
2023-11-28T01:43:07.589Z,6.80
2023-11-28T01:48:10.958Z,6.68
2023-11-28T01:53:16.202Z,6.22
2023-11-28T01:58:19.811Z,6.25
2023-11-28T02:03:28.737Z,6.07
2023-11-28T02:08:35.259Z,5.90
2023-11-28T02:13:38.937Z,5.13
2023-11-28T02:18:43.358Z,5.20
2023-11-28T02:23:48.269Z,5.07
2023-11-28T02:28:53.319Z,4.57
2023-11-28T02:33:56.753Z,4.70
2023-11-28T02:39:00.174Z,4.80
2023-11-28T02:44:05.265Z,4.28
2023-11-28T02:49:08.747Z,3.85
2023-11-28T02:54:12.198Z,4.00
2023-11-28T02:59:17.010Z,3.90
2023-11-28T03:04:20.528Z,3.40
2023-11-28T03:09:24.017Z,3.53
2023-11-28T03:14:28.790Z,3.72
2023-11-28T03:19:32.330Z,3.63
2023-11-28T03:24:35.868Z,3.58
2023-11-28T03:29:41.157Z,2.97
2023-11-28T03:34:45.089Z,3.22
2023-11-28T03:39:48.585Z,2.83
2023-11-28T03:44:53.427Z,2.60
2023-11-28T03:49:57.454Z,2.85
2023-11-28T03:55:00.922Z,2.42
2023-11-28T04:00:08.998Z,2.63
2023-11-28T04:05:13.622Z,2.67
2023-11-28T04:10:17.052Z,2.40
2023-11-28T04:15:21.845Z,2.17
2023-11-28T04:20:25.228Z,2.13
2023-11-28T04:25:28.825Z,2.17
2023-11-28T04:30:34.476Z,2.05
2023-11-28T04:35:38.327Z,1.70
2023-11-28T04:40:41.751Z,2.10
2023-11-28T04:45:46.550Z,2.13
2023-11-28T04:50:49.985Z,2.00
2023-11-28T04:55:53.537Z,1.80
2023-11-28T05:00:58.536Z,2.00
2023-11-28T05:06:02.076Z,1.80
2023-11-28T05:11:07.133Z,1.88
2023-11-28T05:16:12.512Z,1.80
2023-11-28T05:21:18.033Z,1.50
2023-11-28T05:26:27.715Z,1.70
2023-11-28T05:31:32.779Z,1.50
2023-11-28T05:36:36.719Z,1.60
2023-11-28T05:41:40.187Z,1.50
2023-11-28T05:46:45.094Z,1.70
2023-11-28T05:51:48.532Z,1.60
2023-11-28T05:56:51.983Z,1.73
2023-11-28T06:02:05.233Z,1.40
2023-11-28T06:07:10.332Z,1.33
2023-11-28T06:12:14.257Z,1.33
2023-11-28T06:17:19.079Z,1.60
2023-11-28T06:22:22.664Z,1.40
2023-11-28T06:27:26.745Z,1.30
2023-11-28T06:32:32.037Z,1.40
2023-11-28T06:37:36.410Z,1.40
2023-11-28T06:42:39.824Z,1.30
2023-11-28T06:47:44.717Z,1.38
2023-11-28T06:52:48.438Z,1.38
2023-11-28T06:57:51.813Z,1.30
2023-11-28T07:02:56.649Z,1.10
2023-11-28T07:08:00.256Z,1.20
2023-11-28T07:13:03.723Z,1.27
2023-11-28T07:18:10.108Z,1.38
2023-11-28T07:23:14.901Z,1.25
2023-11-28T07:28:18.433Z,1.27
2023-11-28T07:33:24.161Z,1.00
2023-11-28T07:38:27.916Z,1.00
2023-11-28T07:43:31.558Z,0.90
2023-11-28T07:48:36.288Z,0.80
2023-11-28T07:53:39.758Z,0.90
2023-11-28T07:58:43.193Z,1.00
2023-11-28T08:03:48.100Z,0.75
2023-11-28T08:08:51.782Z,0.90
2023-11-28T08:13:55.287Z,0.70
2023-11-28T08:19:00.097Z,0.80
2023-11-28T08:24:03.498Z,0.90
2023-11-28T08:29:06.943Z,0.80
2023-11-28T08:34:11.758Z,1.20
2023-11-28T08:39:16.315Z,0.93
2023-11-28T08:44:19.787Z,0.90
2023-11-28T08:49:24.819Z,0.93
2023-11-28T08:54:30.728Z,0.85
2023-11-28T08:59:34.105Z,1.00
2023-11-28T09:04:39.078Z,1.00
2023-11-28T09:09:42.770Z,1.52
2023-11-28T09:14:54.138Z,1.30
2023-11-28T09:20:01.803Z,1.20
2023-11-28T09:25:06.356Z,4.78
2023-11-28T09:30:11.350Z,4.82
2023-11-28T09:35:16.501Z,16.73
2023-11-28T09:40:20.380Z,21.60
2023-11-28T09:45:24.509Z,18.83
2023-11-28T09:50:30.667Z,16.35
2023-11-28T09:55:35.555Z,14.52
2023-11-28T10:00:40.529Z,12.00
2023-11-28T10:05:45.327Z,9.75
2023-11-28T10:10:50.367Z,8.73
2023-11-28T10:15:55.642Z,7.85
2023-11-28T10:21:00.668Z,6.95
2023-11-28T10:26:04.518Z,7.78
2023-11-28T10:31:08.605Z,7.00
2023-11-28T10:36:16.892Z,7.30
2023-11-28T10:41:20.412Z,6.43
2023-11-28T10:46:23.909Z,5.75
2023-11-28T10:51:32.348Z,6.60
2023-11-28T10:56:49.520Z,5.50
2023-11-28T11:01:53.437Z,5.83
2023-11-28T11:06:59.406Z,5.53
2023-11-28T11:12:05.435Z,5.38
2023-11-28T11:17:26.948Z,4.75
2023-11-28T11:22:38.944Z,4.82
2023-11-28T11:27:42.386Z,4.80
2023-11-28T11:32:46.189Z,4.50
2023-11-28T11:37:50.994Z,4.70
2023-11-28T11:42:54.710Z,4.50
2023-11-28T11:48:02.961Z,4.57
2023-11-28T11:53:10.727Z,3.17
2023-11-28T11:58:15.105Z,2.92
2023-11-28T12:03:19.924Z,2.60
2023-11-28T12:08:25.785Z,2.60
2023-11-28T12:13:29.448Z,2.30
2023-11-28T12:18:34.097Z,2.17
2023-11-28T12:23:38.955Z,1.88
2023-11-28T12:28:42.554Z,1.73
2023-11-28T12:33:46.770Z,1.70
2023-11-28T12:38:53.991Z,1.50
2023-11-28T12:44:01.338Z,1.33
2023-11-28T12:49:05.790Z,1.42
2023-11-28T12:54:15.474Z,1.20
2023-11-28T12:59:19.713Z,1.30
2023-11-28T13:04:23.786Z,1.20
2023-11-28T13:09:29.519Z,1.20
2023-11-28T13:14:33.109Z,1.30
2023-11-28T13:19:36.844Z,1.20
2023-11-28T13:24:41.615Z,1.20
2023-11-28T13:29:47.439Z,1.27
2023-11-28T13:34:51.033Z,1.20
2023-11-28T13:39:56.015Z,1.50
2023-11-28T13:44:59.405Z,1.58
2023-11-28T13:50:06.596Z,1.42
2023-11-28T13:55:12.325Z,1.30
2023-11-28T14:00:18.581Z,1.60
2023-11-28T14:05:22.292Z,1.40
2023-11-28T14:10:28.257Z,1.30
2023-11-28T14:15:32.214Z,1.30
2023-11-28T14:20:35.953Z,1.20
2023-11-28T14:25:40.747Z,1.30
2023-11-28T14:30:46.989Z,1.20
2023-11-28T14:35:50.496Z,1.17
2023-11-28T14:40:55.661Z,1.10
2023-11-28T14:45:59.147Z,0.93
2023-11-28T14:51:02.548Z,0.90
2023-11-28T14:56:09.181Z,0.93
2023-11-28T15:01:12.654Z,0.70
2023-11-28T15:06:16.349Z,0.88
2023-11-28T15:11:21.482Z,0.80
2023-11-28T15:16:25.836Z,0.80
2023-11-28T15:21:29.431Z,0.80
2023-11-28T15:26:34.305Z,0.90
2023-11-28T15:31:37.747Z,0.80
2023-11-28T15:36:41.208Z,0.90
2023-11-28T15:41:46.054Z,0.73
2023-11-28T15:46:49.721Z,0.70
2023-11-28T15:51:53.425Z,0.77
2023-11-28T15:56:58.207Z,0.80
2023-11-28T16:02:02.113Z,0.70
2023-11-28T16:07:05.921Z,0.82
2023-11-28T16:12:11.551Z,0.80
2023-11-28T16:17:15.240Z,0.80
2023-11-28T16:22:18.961Z,0.70
2023-11-28T16:27:23.774Z,1.33
2023-11-28T16:32:27.493Z,1.70
2023-11-28T16:37:31.048Z,2.78
2023-11-28T16:42:35.898Z,3.53
2023-11-28T16:47:39.530Z,4.22
2023-11-28T16:52:43.098Z,4.40
2023-11-28T16:57:48.137Z,4.32
2023-11-28T17:02:51.671Z,3.72
2023-11-28T17:07:55.168Z,3.78
2023-11-28T17:13:00.011Z,4.07
2023-11-28T17:18:03.695Z,3.67
2023-11-28T17:23:07.152Z,3.40
2023-11-28T17:28:11.936Z,3.90
2023-11-28T17:33:15.520Z,4.07
2023-11-28T17:38:19.443Z,3.97
2023-11-28T17:43:24.292Z,3.83
2023-11-28T17:48:27.907Z,3.67
2023-11-28T17:53:31.383Z,3.65
2023-11-28T17:58:36.281Z,3.28
2023-11-28T18:03:39.938Z,3.22
2023-11-28T18:08:43.756Z,3.03
2023-11-28T18:13:48.527Z,2.95
2023-11-28T18:18:54.977Z,3.03
2023-11-28T18:24:00.213Z,2.90
2023-11-28T18:29:05.009Z,2.75
2023-11-28T18:34:09.079Z,2.67
2023-11-28T18:44:17.393Z,2.78
2023-11-28T18:49:20.793Z,2.65
2023-11-28T18:54:24.327Z,2.45
2023-11-28T18:59:29.146Z,2.38
2023-11-28T19:04:32.721Z,2.70
2023-11-28T19:09:37.558Z,2.30
2023-11-28T19:14:43.808Z,2.45
2023-11-28T19:19:47.450Z,2.05
2023-11-28T19:24:50.929Z,2.05
2023-11-28T19:29:55.706Z,2.22
2023-11-28T19:34:59.138Z,2.80
2023-11-28T19:40:02.560Z,2.55
2023-11-28T19:45:09.536Z,2.22
2023-11-28T19:50:13.909Z,2.23
2023-11-28T19:55:17.646Z,2.00
2023-11-28T20:00:23.798Z,2.30
2023-11-28T20:05:28.564Z,2.05
2023-11-28T20:10:32.245Z,2.13
2023-11-28T20:15:37.930Z,2.50
2023-11-28T20:20:41.989Z,2.45
2023-11-28T20:25:46.468Z,2.63
2023-11-28T20:30:52.026Z,2.53
2023-11-28T20:35:56.814Z,2.40
2023-11-28T20:41:01.909Z,2.38
2023-11-28T20:46:07.521Z,2.50
2023-11-28T20:51:11.144Z,2.53
2023-11-28T20:56:15.944Z,2.72
2023-11-28T21:01:22.149Z,2.60
2023-11-28T21:06:25.846Z,2.75
2023-11-28T21:11:29.415Z,3.03
2023-11-28T21:16:34.210Z,3.03
2023-11-28T21:21:37.822Z,2.75
2023-11-28T21:26:44.073Z,4.18
2023-11-28T21:31:52.100Z,13.68
2023-11-28T21:36:55.755Z,28.30
2023-11-28T21:41:59.204Z,36.88
2023-11-28T21:47:07.245Z,41.25
2023-11-28T21:52:11.313Z,42.40
2023-11-28T21:57:14.818Z,44.70
2023-11-28T22:02:20.967Z,48.28
2023-11-28T22:07:26.257Z,48.35
2023-11-28T22:12:30.232Z,49.45
2023-11-28T22:17:35.341Z,60.50
2023-11-28T22:22:39.119Z,59.42
2023-11-28T22:27:42.522Z,59.08
2023-11-28T22:32:48.250Z,58.53
2023-11-28T22:37:54.546Z,58.38
2023-11-28T22:42:57.944Z,55.95
2023-11-28T22:48:02.990Z,54.45
2023-11-28T22:53:06.511Z,53.13
2023-11-28T22:58:10.083Z,48.95
2023-11-28T23:03:15.037Z,49.30
2023-11-28T23:08:18.501Z,45.08
2023-11-28T23:13:21.990Z,42.67
2023-11-28T23:18:27.281Z,39.42
2023-11-28T23:23:30.669Z,36.97
2023-11-28T23:28:34.093Z,34.90
2023-11-28T23:33:38.997Z,34.60
2023-11-28T23:38:42.463Z,32.30
2023-11-28T23:43:46.673Z,31.65
2023-11-28T23:48:53.509Z,30.50
2023-11-28T23:53:57.015Z,28.80
2023-11-28T23:59:00.615Z,28.50
